Time;durP1;ratioP1;P1;durP2;ratioP2;P2;SDS_P1;SDS_P2;PMS_P1;PMS_P2;Temp;Humidity;BMP_temperature;BMP_pressure;BME280_temperature;BME280_humidity;BME280_pressure;Samples;Min_cycle;Max_cycle;Signal;HPM_P1;HPM_P2
2023/09/12 00:02:00;;;;;;;13.15;8.00;;;;;;;19.04;68.43;97897.44;4994739;28;20038;-73
2023/09/12 00:04:26;;;;;;;14.63;8.63;;;;;;;18.84;69.20;97898.66;4977471;28;20371;-73
2023/09/12 00:06:51;;;;;;;11.95;8.23;;;;;;;18.80;69.19;97894.94;4961826;28;20022;-73
2023/09/12 00:09:16;;;;;;;11.25;7.78;;;;;;;18.75;69.23;97889.59;4977431;28;20471;-72
2023/09/12 00:11:42;;;;;;;10.55;8.05;;;;;;;18.67;69.10;97876.63;4994486;28;20034;-75
2023/09/12 00:14:09;;;;;;;14.30;8.48;;;;;;;18.78;69.25;97880.78;4977439;28;20030;-73
2023/09/12 00:16:34;;;;;;;13.50;7.93;;;;;;;18.83;69.27;97886.16;4977810;28;20168;-72
2023/09/12 00:19:00;;;;;;;13.70;8.15;;;;;;;18.75;69.44;97867.75;4961874;28;20483;-73
2023/09/12 00:21:25;;;;;;;13.65;8.07;;;;;;;18.78;69.26;97872.63;4978015;28;20120;-73
2023/09/12 00:23:51;;;;;;;12.55;7.85;;;;;;;18.65;69.21;97846.13;4960954;28;20034;-73
2023/09/12 00:26:16;;;;;;;13.40;7.70;;;;;;;18.82;69.58;97873.59;4994789;28;20031;-72
2023/09/12 00:28:43;;;;;;;14.25;7.85;;;;;;;18.84;69.01;97874.09;4960266;28;20026;-73
2023/09/12 00:31:08;;;;;;;14.45;7.55;;;;;;;18.83;69.21;97874.41;4994622;28;20038;-73
2023/09/12 00:33:34;;;;;;;12.90;8.32;;;;;;;18.83;69.21;97874.41;4976900;28;20050;-73
2023/09/12 00:35:59;;;;;;;13.77;8.10;;;;;;;18.84;68.90;97881.47;4961209;28;20034;-73
2023/09/12 00:38:24;;;;;;;12.88;9.00;;;;;;;18.82;69.25;97868.16;4994196;28;20026;-72
2023/09/12 00:40:50;;;;;;;13.98;8.23;;;;;;;18.79;69.42;97863.28;4977440;28;20069;-73
2023/09/12 00:43:16;;;;;;;11.15;7.80;;;;;;;18.75;69.22;97851.38;4976502;28;20505;-73
2023/09/12 00:45:42;;;;;;;12.93;7.55;;;;;;;18.77;69.19;97857.34;4976763;28;20034;-73
2023/09/12 00:48:09;;;;;;;13.40;8.38;;;;;;;18.77;69.31;97870.97;4976604;28;20038;-73
2023/09/12 00:50:35;;;;;;;14.13;7.80;;;;;;;18.77;69.40;97870.97;4960466;28;20454;-73
2023/09/12 00:53:01;;;;;;;16.73;8.20;;;;;;;18.69;69.11;97852.63;4976125;28;20022;-74
2023/09/12 00:55:26;;;;;;;15.10;8.75;;;;;;;18.75;69.26;97867.75;4960604;28;20057;-73
2023/09/12 00:57:52;;;;;;;19.30;9.63;;;;;;;18.68;69.31;97850.19;4977509;28;20486;-73
2023/09/12 01:00:18;;;;;;;15.63;8.93;;;;;;;18.78;68.96;97867.16;4957116;28;20454;-73
2023/09/12 01:02:45;;;;;;;17.52;8.77;;;;;;;18.64;69.20;97860.91;4955005;28;20407;-76
2023/09/12 01:05:11;;;;;;;13.43;8.23;;;;;;;18.68;69.25;97878.28;4993927;28;20077;-73
2023/09/12 01:07:37;;;;;;;14.05;8.35;;;;;;;18.62;69.37;97869.38;4993408;28;20516;-73
2023/09/12 01:10:07;;;;;;;18.90;8.43;;;;;;;18.58;69.52;97870.28;4976550;28;20029;-73
2023/09/12 01:12:32;;;;;;;10.27;8.70;;;;;;;18.51;69.79;97873.41;4975930;28;20038;-73
2023/09/12 01:14:58;;;;;;;11.40;8.93;;;;;;;18.44;70.11;97869.44;4958314;28;20038;-73
2023/09/12 01:17:24;;;;;;;15.80;9.02;;;;;;;18.37;70.26;97866.31;4990244;28;20056;-72
2023/09/12 01:19:49;;;;;;;14.00;8.75;;;;;;;18.35;69.94;97863.91;4977034;28;20069;-73
2023/09/12 01:22:33;;;;;;;13.68;9.32;;;;;;;18.30;69.97;97877.63;4976343;28;20065;-73
2023/09/12 01:25:35;;;;;;;14.70;8.95;;;;;;;18.13;70.08;97865.72;4976242;28;20104;-73
2023/09/12 01:28:03;;;;;;;14.10;8.57;;;;;;;18.20;70.46;97861.47;4960337;28;20482;-73
2023/09/12 01:30:31;;;;;;;16.42;8.20;;;;;;;18.19;70.70;97867.22;4959890;28;20538;-73
2023/09/12 01:32:57;;;;;;;13.90;7.88;;;;;;;18.16;70.71;97865.09;4959378;28;20041;-73
2023/09/12 01:35:22;;;;;;;16.70;8.70;;;;;;;18.09;70.80;97864.66;4979971;28;20030;-73
2023/09/12 01:37:48;;;;;;;13.27;10.02;;;;;;;17.94;71.54;97866.59;4975811;28;20045;-74
2023/09/12 01:40:15;;;;;;;16.02;10.93;;;;;;;17.83;71.89;97867.84;4993098;28;20085;-72
2023/09/12 01:42:44;;;;;;;16.10;10.80;;;;;;;17.71;72.44;97864.78;4975422;28;20034;-73
2023/09/12 01:45:10;;;;;;;18.83;10.63;;;;;;;17.51;73.06;97858.84;4959497;28;20034;-73
2023/09/12 01:47:37;;;;;;;15.30;9.30;;;;;;;17.53;73.46;97873.81;4976060;28;20042;-73
2023/09/12 01:50:03;;;;;;;18.10;9.43;;;;;;;17.54;73.06;97867.28;4959165;28;20037;-72
2023/09/12 01:52:28;;;;;;;13.15;9.18;;;;;;;17.53;73.05;97852.03;4959127;28;20053;-73
2023/09/12 01:54:54;;;;;;;12.15;8.90;;;;;;;17.49;72.66;97856.44;4959703;28;20023;-73
2023/09/12 01:57:20;;;;;;;16.20;8.98;;;;;;;17.59;72.67;97875.34;4975441;28;20026;-74
2023/09/12 01:59:49;;;;;;;15.38;8.95;;;;;;;17.61;72.96;97864.97;5003553;28;20030;-73
2023/09/12 02:02:15;;;;;;;11.48;7.85;;;;;;;17.64;72.63;97861.63;4974956;28;20038;-73
2023/09/12 02:04:41;;;;;;;16.10;8.52;;;;;;;17.65;72.44;97849.66;4959316;28;20379;-73
2023/09/12 02:07:07;;;;;;;14.15;7.80;;;;;;;17.69;72.64;97856.09;4975504;28;20041;-73
2023/09/12 02:09:32;;;;;;;14.63;8.10;;;;;;;17.72;72.33;97852.78;4959484;28;20081;-75
2023/09/12 02:11:58;;;;;;;18.77;8.15;;;;;;;17.73;72.04;97850.88;4974980;28;20046;-73
2023/09/12 02:14:23;;;;;;;14.18;7.82;;;;;;;17.67;72.00;97836.53;4959167;28;20025;-73
2023/09/12 02:16:48;;;;;;;13.73;7.82;;;;;;;17.81;71.92;97853.72;4958954;28;20045;-73
2023/09/12 02:19:14;;;;;;;14.45;7.63;;;;;;;17.84;71.60;97858.59;4959559;28;20085;-73
2023/09/12 02:21:39;;;;;;;12.63;7.75;;;;;;;17.82;71.63;97855.34;4995681;28;20034;-73
2023/09/12 02:24:05;;;;;;;14.25;8.57;;;;;;;17.59;71.95;97839.97;4962839;28;20114;-73
2023/09/12 02:26:35;;;;;;;15.48;8.40;;;;;;;17.58;72.16;97842.97;4996504;28;20121;-73
2023/09/12 02:29:02;;;;;;;13.23;8.05;;;;;;;17.53;72.30;97834.88;4963924;28;20034;-72
2023/09/12 02:31:28;;;;;;;11.15;8.20;;;;;;;17.63;72.11;97851.88;4996349;28;20058;-71
2023/09/12 02:33:54;;;;;;;12.85;8.80;;;;;;;17.60;72.22;97852.44;4996388;28;20042;-72
2023/09/12 02:36:20;;;;;;;13.77;9.50;;;;;;;17.43;72.62;97857.63;4979102;28;20033;-73
2023/09/12 02:38:45;;;;;;;14.57;9.57;;;;;;;17.22;73.61;97845.44;4978461;28;20078;-72
2023/09/12 02:41:10;;;;;;;17.33;8.40;;;;;;;17.34;73.67;97853.94;4978562;28;20022;-73
2023/09/12 02:43:36;;;;;;;12.05;9.00;;;;;;;17.28;72.91;97849.69;4978150;28;20042;-73
2023/09/12 02:46:01;;;;;;;13.77;9.35;;;;;;;17.32;73.19;97867.03;4995982;28;20050;-72
2023/09/12 02:48:27;;;;;;;13.95;8.43;;;;;;;17.20;73.53;97851.16;4995823;28;20065;-73
2023/09/12 02:50:52;;;;;;;13.15;8.63;;;;;;;17.24;73.14;97854.09;4962116;28;20026;-73
2023/09/12 02:53:18;;;;;;;12.80;8.50;;;;;;;17.31;73.17;97859.97;4961787;28;20065;-72
2023/09/12 02:55:43;;;;;;;13.93;8.55;;;;;;;17.26;73.17;97849.16;4978354;28;20076;-73
2023/09/12 02:58:09;;;;;;;13.20;8.43;;;;;;;17.32;72.96;97860.81;4995486;28;20062;-73
2023/09/12 03:00:40;;;;;;;12.52;8.93;;;;;;;17.29;72.91;97864.91;4978567;28;20037;-73
2023/09/12 03:03:05;;;;;;;15.70;8.30;;;;;;;17.27;72.97;97858.94;4995216;28;20030;-73
2023/09/12 03:05:31;;;;;;;13.00;9.18;;;;;;;17.19;73.27;97851.47;4978460;28;20106;-73
2023/09/12 03:07:57;;;;;;;16.63;10.02;;;;;;;17.03;73.46;97853.59;4978629;28;20026;-72
2023/09/12 03:10:22;;;;;;;16.98;10.40;;;;;;;16.97;73.81;97852.03;4995643;28;20026;-72
2023/09/12 03:12:47;;;;;;;15.40;9.30;;;;;;;16.97;73.96;97851.22;4977387;28;20094;-73
2023/09/12 03:15:13;;;;;;;11.40;8.20;;;;;;;16.89;73.76;97835.56;4995599;28;20507;-73
2023/09/12 03:17:38;;;;;;;13.45;9.18;;;;;;;16.92;73.71;97840.44;4946009;28;20034;-73
2023/09/12 03:20:08;;;;;;;12.13;8.82;;;;;;;16.97;73.44;97843.88;4978003;28;20038;-73
2023/09/12 03:22:37;;;;;;;11.30;8.13;;;;;;;16.97;73.47;97838.44;4961352;28;20040;-73
2023/09/12 03:25:03;;;;;;;13.50;8.50;;;;;;;16.97;73.34;97841.16;4977901;28;20018;-72
2023/09/12 03:27:29;;;;;;;12.13;8.68;;;;;;;17.02;73.42;97841.09;4961728;28;20034;-73
2023/09/12 03:29:54;;;;;;;11.63;8.15;;;;;;;17.00;73.15;97839.75;4961652;28;20026;-72
2023/09/12 03:32:20;;;;;;;15.18;9.65;;;;;;;16.98;73.22;97839.25;4960696;28;20030;-73
2023/09/12 03:34:45;;;;;;;16.15;9.60;;;;;;;16.97;73.30;97849.31;4977513;28;20093;-73
2023/09/12 03:37:11;;;;;;;15.45;10.18;;;;;;;16.82;73.83;97848.72;4961486;28;20130;-73
2023/09/12 03:39:36;;;;;;;14.68;10.48;;;;;;;16.73;74.41;97847.78;4977448;28;20062;-72
2023/09/12 03:42:08;;;;;;;16.08;10.95;;;;;;;16.72;74.59;97846.94;4994667;28;20421;-74
2023/09/12 03:44:34;;;;;;;14.52;10.35;;;;;;;16.67;74.65;97841.56;4994825;28;20057;-73
2023/09/12 03:46:59;;;;;;;16.42;10.95;;;;;;;16.67;75.20;97848.91;4977207;28;20050;-73
2023/09/12 03:49:25;;;;;;;15.73;10.82;;;;;;;16.59;75.22;97840.31;4977331;28;20056;-73
2023/09/12 03:51:51;;;;;;;16.65;10.90;;;;;;;16.64;75.48;97854.97;4977020;28;20035;-72
2023/09/12 03:54:16;;;;;;;11.18;9.43;;;;;;;16.63;75.26;97853.31;4977261;28;20049;-72
2023/09/12 03:56:42;;;;;;;12.23;9.43;;;;;;;16.53;74.93;97833.31;4976813;28;20034;-73
2023/09/12 03:59:07;;;;;;;12.63;9.55;;;;;;;16.69;74.74;97854.88;4969898;28;20065;-73
2023/09/12 04:01:33;;;;;;;13.93;9.50;;;;;;;16.67;74.88;97843.47;4978535;28;20398;-74
2023/09/12 04:03:59;;;;;;;12.23;9.27;;;;;;;16.74;74.77;97854.81;4960882;28;20034;-74
2023/09/12 04:06:24;;;;;;;14.88;9.45;;;;;;;16.70;74.78;97851.88;4960770;28;20026;-73
2023/09/12 04:08:49;;;;;;;13.18;9.07;;;;;;;16.71;75.04;97855.41;4960763;28;20085;-73
2023/09/12 04:11:15;;;;;;;12.25;9.15;;;;;;;16.73;74.92;97854.03;4960649;28;20030;-73
2023/09/12 04:13:40;;;;;;;12.65;9.63;;;;;;;16.71;74.71;97849.97;4956775;28;20473;-73
2023/09/12 04:16:05;;;;;;;14.68;9.45;;;;;;;16.70;74.69;97853.78;4974809;28;20086;-73
2023/09/12 04:18:31;;;;;;;13.68;8.82;;;;;;;16.73;74.45;97854.03;4976507;28;20041;-73
2023/09/12 04:20:57;;;;;;;13.93;9.10;;;;;;;16.73;74.58;97858.66;4993910;28;20027;-73
2023/09/12 04:23:24;;;;;;;13.07;8.65;;;;;;;16.75;74.53;97854.53;4976313;28;20034;-73
2023/09/12 04:25:50;;;;;;;17.85;9.13;;;;;;;16.73;74.48;97861.38;4960360;28;20048;-73
2023/09/12 04:28:15;;;;;;;14.40;8.85;;;;;;;16.72;74.73;97855.09;4960118;28;20439;-72
2023/09/12 04:30:41;;;;;;;13.75;8.80;;;;;;;16.77;74.73;97859.66;4959960;28;20022;-73
2023/09/12 04:33:06;;;;;;;11.32;9.00;;;;;;;16.75;74.46;97851.81;4975778;28;20038;-73
2023/09/12 04:35:35;;;;;;;13.57;8.63;;;;;;;16.80;74.35;97853.66;4959892;28;20030;-73
2023/09/12 04:38:01;;;;;;;17.25;9.20;;;;;;;16.79;74.59;97846.59;4984285;28;20126;-71
2023/09/12 04:40:27;;;;;;;11.65;8.80;;;;;;;16.80;74.47;97846.31;4960160;28;20494;-74
2023/09/12 04:42:53;;;;;;;15.80;9.05;;;;;;;16.71;74.56;97836.38;4992216;28;20113;-73
2023/09/12 04:45:19;;;;;;;16.75;9.68;;;;;;;16.82;74.49;97843.28;4959965;28;20022;-73
2023/09/12 04:47:44;;;;;;;15.43;10.23;;;;;;;16.70;74.45;97832.03;4975958;28;20390;-73
2023/09/12 04:50:11;;;;;;;17.08;10.65;;;;;;;16.74;74.56;97843.94;4959786;28;20375;-74
2023/09/12 04:52:38;;;;;;;13.82;11.55;;;;;;;16.55;75.15;97841.19;4975380;28;20416;-73
2023/09/12 04:55:03;;;;;;;15.73;11.07;;;;;;;16.50;75.77;97850.19;4993227;28;20097;-73
2023/09/12 04:57:30;;;;;;;18.50;12.48;;;;;;;16.36;76.41;97851.97;4959799;28;20026;-73
2023/09/12 04:59:56;;;;;;;18.75;12.15;;;;;;;16.33;76.64;97860.75;4963290;28;20018;-73
2023/09/12 05:02:22;;;;;;;17.48;11.65;;;;;;;16.34;75.65;97854.19;4959138;28;20038;-73
2023/09/12 05:04:48;;;;;;;17.63;11.80;;;;;;;16.39;76.56;97859.56;4959706;28;20033;-73
2023/09/12 05:07:14;;;;;;;17.63;12.63;;;;;;;16.33;76.84;97855.31;4975604;28;20038;-73
2023/09/12 05:09:42;;;;;;;17.00;12.40;;;;;;;16.44;77.07;97862.22;4944161;28;20065;-73
2023/09/12 05:12:08;;;;;;;17.30;11.40;;;;;;;16.48;77.00;97862.44;4975009;28;20058;-73
2023/09/12 05:14:33;;;;;;;13.85;9.98;;;;;;;16.53;76.85;97860.50;4975477;28;20026;-73
2023/09/12 05:16:58;;;;;;;14.07;10.45;;;;;;;16.56;76.89;97843.63;4975413;28;20045;-72
2023/09/12 05:19:25;;;;;;;13.68;9.68;;;;;;;16.66;76.52;97852.75;4959323;28;20402;-73
2023/09/12 05:21:51;;;;;;;15.05;10.13;;;;;;;16.77;76.78;97863.22;4958891;28;20502;-73
2023/09/12 05:24:16;;;;;;;15.82;10.40;;;;;;;16.80;76.26;97869.97;4959133;28;20072;-73
2023/09/12 05:26:41;;;;;;;12.50;9.50;;;;;;;16.78;75.99;97850.44;4992539;28;20034;-74
2023/09/12 05:29:07;;;;;;;15.05;10.20;;;;;;;16.90;75.86;97865.19;4974995;28;20113;-73
2023/09/12 05:31:32;;;;;;;15.13;10.23;;;;;;;16.93;75.87;97869.25;4959319;28;20034;-73
2023/09/12 05:33:58;;;;;;;15.40;10.68;;;;;;;17.05;75.80;97872.34;4975043;28;20116;-73
2023/09/12 05:36:24;;;;;;;15.02;10.20;;;;;;;17.05;75.59;97856.00;4975172;28;20490;-74
2023/09/12 05:38:50;;;;;;;15.80;9.98;;;;;;;17.11;75.30;97860.28;4939681;28;20073;-73
2023/09/12 05:41:15;;;;;;;14.95;9.93;;;;;;;17.15;75.44;97855.88;4967391;28;20037;-74
2023/09/12 05:43:41;;;;;;;16.40;9.50;;;;;;;17.42;75.42;97877.78;4958426;28;20033;-73
2023/09/12 05:46:06;;;;;;;16.73;9.80;;;;;;;17.36;75.39;97868.09;4975001;28;20513;-73
2023/09/12 05:48:31;;;;;;;13.98;10.02;;;;;;;17.43;75.15;97860.34;4958723;28;20030;-73
2023/09/12 05:50:57;;;;;;;14.45;10.02;;;;;;;17.65;75.24;97882.34;4992221;28;20124;-73
2023/09/12 05:53:23;;;;;;;17.10;10.52;;;;;;;17.74;74.97;97882.44;4974536;28;20073;-73
2023/09/12 05:55:48;;;;;;;13.57;10.02;;;;;;;17.77;74.63;97869.06;4958709;28;20062;-73
2023/09/12 05:58:14;;;;;;;16.40;10.52;;;;;;;17.53;75.23;97846.56;4974795;28;20053;-73
2023/09/12 06:00:39;;;;;;;14.88;10.60;;;;;;;17.73;75.16;97884.38;4958716;28;20122;-72
2023/09/12 06:03:05;;;;;;;13.18;9.85;;;;;;;17.67;75.09;97882.84;4958399;28;20034;-73
2023/09/12 06:05:30;;;;;;;16.38;10.43;;;;;;;17.53;74.91;97868.38;4958714;28;20034;-74
2023/09/12 06:07:55;;;;;;;12.48;10.13;;;;;;;17.54;75.24;97870.00;4974645;28;20032;-74
2023/09/12 06:10:21;;;;;;;18.75;11.52;;;;;;;17.61;75.05;97875.06;4992093;28;20097;-74
2023/09/12 06:12:46;;;;;;;14.02;10.88;;;;;;;17.62;75.54;97874.75;4991420;28;20546;-73
2023/09/12 06:15:12;;;;;;;18.60;12.82;;;;;;;17.65;75.73;97879.59;4974788;28;20034;-73
2023/09/12 06:17:37;;;;;;;18.58;12.25;;;;;;;17.63;76.26;97881.00;4991993;28;20027;-73
2023/09/12 06:20:06;;;;;;;15.55;11.85;;;;;;;17.62;76.34;97872.03;4958502;28;20093;-73
2023/09/12 06:22:31;;;;;;;15.15;12.10;;;;;;;17.78;76.08;97881.56;4958312;28;20018;-73
2023/09/12 06:24:57;;;;;;;14.60;12.23;;;;;;;17.83;76.01;97870.56;4958353;28;20093;-73
2023/09/12 06:27:22;;;;;;;18.67;12.18;;;;;;;18.02;75.58;97875.19;4991754;28;20113;-73
2023/09/12 06:29:48;;;;;;;20.20;11.85;;;;;;;18.17;75.38;97877.63;4991938;28;20042;-71
2023/09/12 06:32:15;;;;;;;14.82;11.95;;;;;;;18.20;74.97;97866.13;4974158;28;20054;-73
2023/09/12 06:34:41;;;;;;;15.63;11.70;;;;;;;18.36;74.61;97864.72;4958507;28;20410;-73
2023/09/12 06:37:06;;;;;;;20.23;12.48;;;;;;;18.44;74.58;97874.91;4974483;28;20026;-73
2023/09/12 06:39:31;;;;;;;19.77;13.07;;;;;;;18.37;75.94;97882.66;4991936;28;20043;-73
2023/09/12 06:41:57;;;;;;;20.50;13.13;;;;;;;18.29;76.53;97886.13;4957751;28;20305;-73
2023/09/12 06:44:22;;;;;;;18.17;13.15;;;;;;;18.29;76.75;97892.38;4991889;28;20030;-73
2023/09/12 06:46:48;;;;;;;20.45;13.48;;;;;;;18.38;76.57;97895.22;4991737;28;20610;-73
2023/09/12 06:49:13;;;;;;;16.65;12.70;;;;;;;18.47;76.45;97882.50;4991920;28;20044;-73
2023/09/12 06:51:38;;;;;;;15.30;10.73;;;;;;;18.57;75.83;97895.97;4991221;28;20026;-73
2023/09/12 06:54:04;;;;;;;16.67;10.27;;;;;;;18.65;75.51;97900.69;4991690;28;20050;-73
2023/09/12 06:56:29;;;;;;;17.27;10.82;;;;;;;18.75;74.93;97889.59;4974423;28;20034;-73
2023/09/12 06:58:55;;;;;;;17.75;11.23;;;;;;;18.71;74.78;97888.59;4974626;28;20442;-74
2023/09/12 07:01:20;;;;;;;13.70;10.70;;;;;;;18.84;74.30;97884.22;4977587;28;20106;-72
2023/09/12 07:03:46;;;;;;;15.38;10.75;;;;;;;18.98;74.09;97877.63;4991218;28;20041;-73
2023/09/12 07:06:11;;;;;;;12.48;10.77;;;;;;;19.24;73.77;97897.78;4975189;28;20038;-73
2023/09/12 07:08:37;;;;;;;16.63;11.43;;;;;;;19.35;73.47;97886.66;4961883;28;20034;-73
2023/09/12 07:11:05;;;;;;;15.93;10.77;;;;;;;19.50;73.54;97899.97;4961433;28;20383;-73
2023/09/12 07:13:32;;;;;;;16.15;11.85;;;;;;;19.55;73.14;97886.19;4977547;28;20495;-73
2023/09/12 07:15:57;;;;;;;17.33;11.80;;;;;;;19.71;72.53;97890.97;4977713;28;20422;-73
2023/09/12 07:18:23;;;;;;;18.60;11.77;;;;;;;19.79;72.46;97883.97;4995109;28;20034;-74
2023/09/12 07:20:59;;;;;;;15.20;11.02;;;;;;;19.95;71.95;97879.72;4977597;28;20419;-74
2023/09/12 07:23:24;;;;;;;14.60;11.35;;;;;;;20.10;71.92;97893.00;4961193;28;20121;-74
2023/09/12 07:25:50;;;;;;;15.55;11.25;;;;;;;20.14;71.38;97882.25;4977386;28;20139;-74
2023/09/12 07:28:16;;;;;;;18.13;10.95;;;;;;;20.31;71.20;97888.63;4994921;28;20038;-74
2023/09/12 07:30:41;;;;;;;15.63;10.77;;;;;;;20.43;71.33;97888.84;4977403;28;20022;-73
2023/09/12 07:33:06;;;;;;;20.25;10.20;;;;;;;20.56;71.11;97876.97;4977142;28;20526;-74
2023/09/12 07:35:32;;;;;;;14.13;10.30;;;;;;;20.64;71.12;97880.88;4977340;28;20031;-74
2023/09/12 07:37:57;;;;;;;14.27;9.60;;;;;;;20.73;70.99;97878.16;4977250;28;20064;-72
2023/09/12 07:40:23;;;;;;;14.13;10.00;;;;;;;20.73;70.44;97861.75;4977261;28;20030;-73
2023/09/12 07:42:48;;;;;;;15.30;9.98;;;;;;;20.88;69.75;97880.47;4960761;28;20505;-73
2023/09/12 07:45:13;;;;;;;12.25;9.82;;;;;;;21.00;69.07;97877.94;4994587;28;20030;-73
2023/09/12 07:47:39;;;;;;;16.10;9.60;;;;;;;21.16;68.59;97881.84;4977269;28;20651;-73
2023/09/12 07:50:06;;;;;;;13.63;10.10;;;;;;;21.23;68.49;97883.00;4994577;28;20402;-74
2023/09/12 07:52:32;;;;;;;14.63;9.77;;;;;;;21.14;68.35;97889.56;4960699;28;20045;-73
2023/09/12 07:55:04;;;;;;;14.80;9.35;;;;;;;21.20;67.84;97891.03;4976894;28;20026;-74
2023/09/12 07:57:30;;;;;;;16.85;9.63;;;;;;;21.19;67.55;97892.94;4977757;28;20022;-74
2023/09/12 07:59:56;;;;;;;14.32;8.98;;;;;;;21.40;66.67;97890.38;4977095;28;20616;-74
2023/09/12 08:02:21;;;;;;;10.70;8.48;;;;;;;21.53;66.04;97886.69;4976775;28;20034;-74
2023/09/12 08:04:48;;;;;;;12.45;9.10;;;;;;;21.64;65.62;97877.00;4994304;28;20022;-74
2023/09/12 08:07:14;;;;;;;13.82;9.60;;;;;;;21.72;65.32;97881.69;4976895;28;20578;-74
2023/09/12 08:09:53;;;;;;;14.98;9.50;;;;;;;21.75;64.68;97869.28;4994192;28;20022;-74
2023/09/12 08:12:19;;;;;;;14.90;9.20;;;;;;;21.97;64.78;97888.28;4993558;28;20038;-73
2023/09/12 08:14:45;;;;;;;13.32;10.13;;;;;;;22.00;64.33;97893.94;4976737;28;20020;-74
2023/09/12 08:17:11;;;;;;;13.02;8.57;;;;;;;22.09;64.20;97893.09;4976227;28;20034;-73
2023/09/12 08:19:37;;;;;;;12.80;9.05;;;;;;;22.15;63.90;97878.09;4976134;28;20125;-73
2023/09/12 08:22:02;;;;;;;13.07;8.23;;;;;;;22.24;63.15;97884.38;4976172;28;20466;-73
2023/09/12 08:24:28;;;;;;;15.05;8.68;;;;;;;22.20;62.77;97872.41;4976816;28;20029;-73
2023/09/12 08:26:54;;;;;;;12.65;8.32;;;;;;;22.34;62.31;97884.00;4976512;28;20105;-73
2023/09/12 08:29:19;;;;;;;14.30;8.73;;;;;;;22.36;62.62;97876.22;4993823;28;20030;-73
2023/09/12 08:31:46;;;;;;;12.43;8.68;;;;;;;22.49;62.65;97892.50;4975907;28;20207;-73
2023/09/12 08:34:12;;;;;;;14.52;8.93;;;;;;;22.54;62.46;97889.56;4976567;28;20542;-73
2023/09/12 08:36:37;;;;;;;12.02;8.98;;;;;;;22.65;61.77;97879.06;4993526;28;20113;-73
2023/09/12 08:39:04;;;;;;;15.02;9.43;;;;;;;22.77;62.02;97892.91;4984848;28;20050;-73
2023/09/12 08:41:29;;;;;;;12.88;9.32;;;;;;;22.82;62.35;97873.50;4993599;28;20121;-73
2023/09/12 08:43:55;;;;;;;13.75;9.35;;;;;;;23.02;62.69;97894.69;4975776;28;20113;-72
2023/09/12 08:46:22;;;;;;;15.20;8.88;;;;;;;23.16;62.31;97889.75;4976043;28;20034;-73
2023/09/12 08:48:49;;;;;;;11.90;9.18;;;;;;;23.24;61.62;97896.34;4976034;28;20037;-73
2023/09/12 08:51:15;;;;;;;12.48;8.75;;;;;;;23.33;61.36;97895.16;4975934;28;20069;-73
2023/09/12 08:53:40;;;;;;;12.40;8.98;;;;;;;23.49;61.15;97895.38;4992910;28;20023;-73
2023/09/12 08:56:06;;;;;;;14.38;8.98;;;;;;;23.69;60.84;97896.50;4959754;28;20046;-73
2023/09/12 08:58:32;;;;;;;13.15;9.52;;;;;;;23.72;60.32;97890.31;4975947;28;20046;-73
2023/09/12 09:00:58;;;;;;;12.55;9.18;;;;;;;23.80;60.46;97892.22;4975752;28;20042;-72
2023/09/12 09:03:24;;;;;;;19.88;10.55;;;;;;;23.92;60.54;97889.50;4975445;28;20061;-73
2023/09/12 09:05:51;;;;;;;18.50;10.35;;;;;;;23.99;60.77;97892.50;4975594;28;20053;-73
2023/09/12 09:08:17;;;;;;;17.92;9.82;;;;;;;24.15;59.53;97888.00;4975697;28;20070;-73
2023/09/12 09:10:57;;;;;;;12.68;9.50;;;;;;;24.27;59.79;97879.75;4975681;28;20089;-74
2023/09/12 09:13:23;;;;;;;14.30;9.35;;;;;;;24.29;59.61;97860.16;4975078;28;20070;-74
2023/09/12 09:15:49;;;;;;;14.07;9.95;;;;;;;24.44;59.41;97863.03;4992858;28;20084;-73
2023/09/12 09:18:14;;;;;;;14.45;9.27;;;;;;;24.63;59.47;97876.25;4975542;28;20038;-73
2023/09/12 09:20:40;;;;;;;13.45;9.98;;;;;;;24.71;58.63;97876.13;4992801;28;20137;-73
2023/09/12 09:23:10;;;;;;;14.57;9.77;;;;;;;24.86;58.15;97873.88;4992293;28;20038;-73
2023/09/12 09:25:39;;;;;;;13.13;9.73;;;;;;;24.92;59.04;97873.31;4992740;28;20046;-73
2023/09/12 09:28:05;;;;;;;13.18;9.38;;;;;;;25.12;58.39;97871.56;4975360;28;20029;-73
2023/09/12 09:30:45;;;;;;;14.50;10.30;;;;;;;25.37;57.86;97867.59;4958770;28;20047;-73
2023/09/12 09:33:11;;;;;;;11.98;9.25;;;;;;;25.62;58.05;97865.63;4958896;28;20355;-74
2023/09/12 09:35:37;;;;;;;14.63;9.68;;;;;;;25.80;57.00;97867.72;4975073;28;20040;-74
2023/09/12 09:38:06;;;;;;;13.93;9.93;;;;;;;25.91;56.68;97876.28;4958977;28;20037;-74
2023/09/12 09:40:32;;;;;;;13.48;10.57;;;;;;;25.93;57.11;97873.97;4984521;28;20018;-74
2023/09/12 09:43:02;;;;;;;18.30;10.80;;;;;;;25.95;57.13;97878.00;4974690;28;20037;-72
2023/09/12 09:45:29;;;;;;;15.43;10.77;;;;;;;25.99;57.78;97873.41;4974924;28;20073;-73
2023/09/12 09:47:59;;;;;;;13.23;11.02;;;;;;;25.92;56.55;97856.63;4974892;28;20070;-73
2023/09/12 09:50:25;;;;;;;15.90;9.90;;;;;;;25.89;57.23;97862.84;4975016;28;20034;-73
2023/09/12 09:52:55;;;;;;;12.23;10.23;;;;;;;25.88;57.08;97866.75;4958328;28;20044;-72
2023/09/12 09:55:21;;;;;;;16.33;10.02;;;;;;;25.88;57.52;97855.72;4942987;28;20031;-73
2023/09/12 09:57:48;;;;;;;11.93;10.07;;;;;;;25.75;58.13;97867.97;4974866;28;20080;-74
2023/09/12 10:00:14;;;;;;;18.88;10.55;;;;;;;25.98;57.38;97870.97;4992205;28;20406;-73
2023/09/12 10:02:40;;;;;;;17.20;10.48;;;;;;;25.98;57.81;97866.25;4991813;28;20037;-74
2023/09/12 10:05:08;;;;;;;14.90;10.38;;;;;;;25.89;57.46;97857.34;4974822;28;20042;-73
2023/09/12 10:07:37;;;;;;;15.32;9.93;;;;;;;26.13;57.46;97866.69;4958672;28;20022;-74
2023/09/12 10:10:03;;;;;;;15.73;10.35;;;;;;;26.17;57.33;97845.47;4958693;28;20046;-74
2023/09/12 10:12:31;;;;;;;16.50;10.50;;;;;;;26.36;56.48;97859.41;4974206;28;20399;-73
2023/09/12 10:14:58;;;;;;;12.70;9.88;;;;;;;26.33;56.62;97854.56;4974765;28;20042;-74
2023/09/12 10:17:26;;;;;;;15.05;10.40;;;;;;;26.32;56.04;97847.47;4974552;28;20101;-74
2023/09/12 10:19:55;;;;;;;13.00;10.43;;;;;;;26.35;55.99;97832.97;4958460;28;20042;-74
2023/09/12 10:22:24;;;;;;;15.10;10.38;;;;;;;26.68;56.23;97844.41;4958014;28;20038;-73
2023/09/12 10:24:50;;;;;;;12.75;10.77;;;;;;;26.76;55.06;97854.53;4974676;28;20044;-74
2023/09/12 10:27:18;;;;;;;11.90;10.48;;;;;;;26.82;55.21;97839.28;4974445;28;20034;-74
2023/09/12 10:29:47;;;;;;;12.75;10.35;;;;;;;26.93;54.26;97840.34;4974572;28;20494;-74
2023/09/12 10:32:12;;;;;;;13.15;10.15;;;;;;;27.02;54.56;97831.84;4974794;28;20068;-73
2023/09/12 10:34:39;;;;;;;12.27;10.25;;;;;;;27.29;54.97;97842.72;4974725;28;20042;-74
2023/09/12 10:37:06;;;;;;;14.98;10.50;;;;;;;27.42;54.27;97840.69;4974459;28;20026;-75
2023/09/12 10:39:32;;;;;;;11.48;10.13;;;;;;;27.56;54.06;97845.69;4974598;28;20035;-73
2023/09/12 10:41:59;;;;;;;10.48;9.38;;;;;;;27.75;52.70;97837.41;4960057;28;20569;-74
2023/09/12 10:44:25;;;;;;;14.43;10.02;;;;;;;27.85;51.93;97839.56;4978466;28;20380;-74
2023/09/12 10:46:53;;;;;;;13.70;9.95;;;;;;;27.80;51.81;97832.34;4978304;28;20050;-74
2023/09/12 10:49:18;;;;;;;12.50;10.00;;;;;;;27.92;51.85;97837.75;4962175;28;20490;-74
2023/09/12 10:51:45;;;;;;;13.85;9.98;;;;;;;27.94;52.37;97837.34;4977631;28;20030;-74
2023/09/12 10:54:15;;;;;;;14.10;10.00;;;;;;;28.07;52.88;97827.78;4978203;28;20398;-74
2023/09/12 10:56:41;;;;;;;10.93;9.77;;;;;;;28.20;52.65;97815.34;4961970;28;20042;-74
2023/09/12 10:59:06;;;;;;;14.98;10.38;;;;;;;28.31;51.45;97832.16;4978105;28;20093;-75
2023/09/12 11:01:35;;;;;;;14.20;10.10;;;;;;;28.06;50.42;97799.28;4995465;28;20414;-73
2023/09/12 11:04:19;;;;;;;12.45;10.55;;;;;;;28.38;49.96;97824.75;4961745;28;20038;-74
2023/09/12 11:06:45;;;;;;;14.32;10.73;;;;;;;28.45;50.57;97822.09;4977884;28;20494;-74
2023/09/12 11:09:18;;;;;;;11.98;9.93;;;;;;;28.61;51.00;97820.03;4977725;28;20049;-74
2023/09/12 11:11:46;;;;;;;12.88;9.65;;;;;;;28.69;50.83;97827.28;4994646;28;20042;-74
2023/09/12 11:14:12;;;;;;;14.05;10.27;;;;;;;28.68;49.49;97825.69;4961091;28;20109;-74
2023/09/12 11:16:37;;;;;;;15.65;9.77;;;;;;;28.79;49.21;97819.50;4977986;28;20117;-74
2023/09/12 11:19:19;;;;;;;16.05;10.45;;;;;;;28.82;48.95;97813.22;4961530;28;20026;-74